sensor_id;sensor_type;location;lat;lon;timestamp;pressure;altitude;pressure_sealevel;temperature;humidity
37064;BME280;23211;53.912;9.138;2022-12-07T00:01:29;101174.69;;;9.55;56.52
37064;BME280;23211;53.912;9.138;2022-12-07T00:04:17;101185.97;;;9.57;56.69
37064;BME280;23211;53.912;9.138;2022-12-07T00:07:03;101177.59;;;9.54;56.63
37064;BME280;23211;53.912;9.138;2022-12-07T00:09:49;101171.44;;;9.53;56.56
37064;BME280;23211;53.912;9.138;2022-12-07T00:12:35;101179.47;;;9.53;57.06
37064;BME280;23211;53.912;9.138;2022-12-07T00:15:21;101164.25;;;9.54;57.16
37064;BME280;23211;53.912;9.138;2022-12-07T00:18:07;101173.06;;;9.54;56.52
37064;BME280;23211;53.912;9.138;2022-12-07T00:20:52;101168.78;;;9.53;56.98
37064;BME280;23211;53.912;9.138;2022-12-07T00:23:39;101172.50;;;9.52;57.53
37064;BME280;23211;53.912;9.138;2022-12-07T00:26:27;101170.28;;;9.49;57.76
37064;BME280;23211;53.912;9.138;2022-12-07T00:29:19;101153.66;;;9.47;57.28
37064;BME280;23211;53.912;9.138;2022-12-07T00:32:05;101169.72;;;9.47;57.30
37064;BME280;23211;53.912;9.138;2022-12-07T00:34:51;101167.03;;;9.47;57.48
37064;BME280;23211;53.912;9.138;2022-12-07T00:37:37;101173.19;;;9.48;57.66
37064;BME280;23211;53.912;9.138;2022-12-07T00:40:23;101157.97;;;9.48;57.29
37064;BME280;23211;53.912;9.138;2022-12-07T00:43:09;101154.25;;;9.49;57.83
37064;BME280;23211;53.912;9.138;2022-12-07T00:45:55;101161.47;;;9.49;57.43
37064;BME280;23211;53.912;9.138;2022-12-07T00:48:41;101161.69;;;9.47;57.27
37064;BME280;23211;53.912;9.138;2022-12-07T00:51:27;101161.94;;;9.46;56.96
37064;BME280;23211;53.912;9.138;2022-12-07T00:54:13;101153.56;;;9.42;57.43
37064;BME280;23211;53.912;9.138;2022-12-07T00:56:59;101161.00;;;9.40;57.44
37064;BME280;23211;53.912;9.138;2022-12-07T00:59:44;101148.91;;;9.37;57.04
37064;BME280;23211;53.912;9.138;2022-12-07T01:02:30;101151.84;;;9.36;57.56
37064;BME280;23211;53.912;9.138;2022-12-07T01:05:16;101151.25;;;9.34;57.46
37064;BME280;23211;53.912;9.138;2022-12-07T01:08:02;101164.03;;;9.32;57.42
37064;BME280;23211;53.912;9.138;2022-12-07T01:10:49;101164.28;;;9.30;57.21
37064;BME280;23211;53.912;9.138;2022-12-07T01:13:35;101159.41;;;9.27;57.09
37064;BME280;23211;53.912;9.138;2022-12-07T01:16:22;101156.97;;;9.26;57.17
37064;BME280;23211;53.912;9.138;2022-12-07T01:19:09;101161.72;;;9.24;57.00
37064;BME280;23211;53.912;9.138;2022-12-07T01:21:54;101162.19;;;9.21;57.19
37064;BME280;23211;53.912;9.138;2022-12-07T01:24:40;101161.84;;;9.17;57.42
37064;BME280;23211;53.912;9.138;2022-12-07T01:27:26;101168.47;;;9.15;57.03
37064;BME280;23211;53.912;9.138;2022-12-07T01:30:12;101167.09;;;9.12;56.97
37064;BME280;23211;53.912;9.138;2022-12-07T01:32:58;101163.84;;;9.10;57.30
37064;BME280;23211;53.912;9.138;2022-12-07T01:35:44;101157.91;;;9.08;56.87
37064;BME280;23211;53.912;9.138;2022-12-07T01:38:31;101168.25;;;9.04;57.09
37064;BME280;23211;53.912;9.138;2022-12-07T01:41:17;101158.84;;;9.02;57.18
37064;BME280;23211;53.912;9.138;2022-12-07T01:47:07;101169.06;;;8.93;57.50
37064;BME280;23211;53.912;9.138;2022-12-07T01:49:53;101171.16;;;8.91;57.45
37064;BME280;23211;53.912;9.138;2022-12-07T01:52:39;101170.34;;;8.91;57.11
37064;BME280;23211;53.912;9.138;2022-12-07T01:55:27;101169.53;;;8.90;57.38
37064;BME280;23211;53.912;9.138;2022-12-07T01:58:13;101167.91;;;8.89;57.13
37064;BME280;23211;53.912;9.138;2022-12-07T02:01:00;101167.31;;;8.87;57.22
37064;BME280;23211;53.912;9.138;2022-12-07T02:03:46;101171.84;;;8.87;57.06
37064;BME280;23211;53.912;9.138;2022-12-07T02:06:33;101176.84;;;8.83;57.53
37064;BME280;23211;53.912;9.138;2022-12-07T02:09:21;101177.31;;;8.80;57.46
37064;BME280;23211;53.912;9.138;2022-12-07T02:12:07;101176.13;;;8.76;57.46
37064;BME280;23211;53.912;9.138;2022-12-07T02:14:53;101175.56;;;8.74;57.71
37064;BME280;23211;53.912;9.138;2022-12-07T02:18:00;101170.09;;;8.69;57.58
37064;BME280;23211;53.912;9.138;2022-12-07T02:24:24;101165.44;;;8.64;57.84
37064;BME280;23211;53.912;9.138;2022-12-07T02:30:20;101166.50;;;8.63;57.35
37064;BME280;23211;53.912;9.138;2022-12-07T02:33:29;101167.75;;;8.61;57.13
37064;BME280;23211;53.912;9.138;2022-12-07T02:36:21;101173.56;;;8.58;57.71
37064;BME280;23211;53.912;9.138;2022-12-07T02:39:18;101171.13;;;8.56;57.81
37064;BME280;23211;53.912;9.138;2022-12-07T02:42:12;101169.72;;;8.54;57.65
37064;BME280;23211;53.912;9.138;2022-12-07T02:45:00;101172.63;;;8.52;57.56
37064;BME280;23211;53.912;9.138;2022-12-07T02:47:49;101176.56;;;8.50;57.68
37064;BME280;23211;53.912;9.138;2022-12-07T02:50:36;101173.91;;;8.50;57.69
37064;BME280;23211;53.912;9.138;2022-12-07T02:53:42;101178.06;;;8.46;57.64
37064;BME280;23211;53.912;9.138;2022-12-07T03:02:59;101170.38;;;8.37;57.46
37064;BME280;23211;53.912;9.138;2022-12-07T03:06:11;101160.97;;;8.35;57.25
37064;BME280;23211;53.912;9.138;2022-12-07T03:09:20;101163.06;;;8.33;57.10
37064;BME280;23211;53.912;9.138;2022-12-07T03:12:13;101161.78;;;8.35;56.89
37064;BME280;23211;53.912;9.138;2022-12-07T03:15:07;101163.41;;;8.36;56.70
37064;BME280;23211;53.912;9.138;2022-12-07T03:17:57;101156.00;;;8.38;56.54
37064;BME280;23211;53.912;9.138;2022-12-07T03:20:44;101149.84;;;8.38;56.50
37064;BME280;23211;53.912;9.138;2022-12-07T03:23:33;101151.69;;;8.37;56.83
37064;BME280;23211;53.912;9.138;2022-12-07T03:26:24;101154.59;;;8.36;56.71
37064;BME280;23211;53.912;9.138;2022-12-07T03:29:23;101156.44;;;8.35;57.00
37064;BME280;23211;53.912;9.138;2022-12-07T03:38:48;101145.38;;;8.32;56.93
37064;BME280;23211;53.912;9.138;2022-12-07T03:41:36;101151.34;;;8.34;56.80
37064;BME280;23211;53.912;9.138;2022-12-07T03:44:23;101151.91;;;8.36;56.91
37064;BME280;23211;53.912;9.138;2022-12-07T03:47:16;101148.22;;;8.37;56.58
37064;BME280;23211;53.912;9.138;2022-12-07T03:50:22;101154.13;;;8.39;56.58
37064;BME280;23211;53.912;9.138;2022-12-07T03:53:24;101154.94;;;8.39;56.11
37064;BME280;23211;53.912;9.138;2022-12-07T03:56:15;101150.41;;;8.40;56.13
37064;BME280;23211;53.912;9.138;2022-12-07T03:59:01;101149.59;;;8.39;56.10
37064;BME280;23211;53.912;9.138;2022-12-07T04:01:53;101147.16;;;8.38;56.20
37064;BME280;23211;53.912;9.138;2022-12-07T04:04:41;101146.34;;;8.37;56.21
37064;BME280;23211;53.912;9.138;2022-12-07T04:07:27;101139.38;;;8.36;56.09
37064;BME280;23211;53.912;9.138;2022-12-07T04:10:13;101149.25;;;8.36;56.35
37064;BME280;23211;53.912;9.138;2022-12-07T04:12:59;101146.34;;;8.37;56.14
37064;BME280;23211;53.912;9.138;2022-12-07T04:15:45;101148.22;;;8.37;56.53
37064;BME280;23211;53.912;9.138;2022-12-07T04:18:31;101146.34;;;8.37;56.40
37064;BME280;23211;53.912;9.138;2022-12-07T04:21:16;101150.06;;;8.36;56.21
37064;BME280;23211;53.912;9.138;2022-12-07T04:24:03;101143.69;;;8.37;56.24
37064;BME280;23211;53.912;9.138;2022-12-07T04:26:49;101144.72;;;8.36;56.30
37064;BME280;23211;53.912;9.138;2022-12-07T04:29:35;101141.59;;;8.39;56.26
37064;BME280;23211;53.912;9.138;2022-12-07T04:32:22;101137.66;;;8.42;56.16
37064;BME280;23211;53.912;9.138;2022-12-07T04:35:08;101126.75;;;8.44;56.06
37064;BME280;23211;53.912;9.138;2022-12-07T04:37:54;101138.00;;;8.46;55.97
37064;BME280;23211;53.912;9.138;2022-12-07T04:40:39;101139.63;;;8.47;55.71
37064;BME280;23211;53.912;9.138;2022-12-07T04:43:25;101134.31;;;8.47;55.44
37064;BME280;23211;53.912;9.138;2022-12-07T04:46:11;101144.41;;;8.45;55.58
37064;BME280;23211;53.912;9.138;2022-12-07T04:48:57;101139.28;;;8.43;55.16
37064;BME280;23211;53.912;9.138;2022-12-07T04:51:44;101137.06;;;8.40;55.51
37064;BME280;23211;53.912;9.138;2022-12-07T04:54:30;101141.84;;;8.38;55.59
37064;BME280;23211;53.912;9.138;2022-12-07T04:57:16;101134.28;;;8.35;55.40
37064;BME280;23211;53.912;9.138;2022-12-07T05:00:02;101128.13;;;8.34;55.61
37064;BME280;23211;53.912;9.138;2022-12-07T05:02:48;101135.53;;;8.32;55.91
37064;BME280;23211;53.912;9.138;2022-12-07T05:05:34;101138.19;;;8.32;56.04
37064;BME280;23211;53.912;9.138;2022-12-07T05:08:19;101127.75;;;8.31;55.91
37064;BME280;23211;53.912;9.138;2022-12-07T05:11:06;101131.03;;;8.33;55.94
37064;BME280;23211;53.912;9.138;2022-12-07T05:13:53;101121.97;;;8.34;55.92
37064;BME280;23211;53.912;9.138;2022-12-07T05:16:40;101118.84;;;8.37;56.10
37064;BME280;23211;53.912;9.138;2022-12-07T05:19:26;101115.94;;;8.38;56.03
37064;BME280;23211;53.912;9.138;2022-12-07T05:22:12;101106.44;;;8.43;55.71
37064;BME280;23211;53.912;9.138;2022-12-07T05:24:59;101108.63;;;8.46;55.65
37064;BME280;23211;53.912;9.138;2022-12-07T05:27:44;101111.09;;;8.47;55.82
37064;BME280;23211;53.912;9.138;2022-12-07T05:30:30;101114.56;;;8.48;55.46
37064;BME280;23211;53.912;9.138;2022-12-07T05:33:16;101115.59;;;8.47;55.58
37064;BME280;23211;53.912;9.138;2022-12-07T05:36:02;101114.78;;;8.46;55.55
37064;BME280;23211;53.912;9.138;2022-12-07T05:38:50;101117.47;;;8.46;55.14
37064;BME280;23211;53.912;9.138;2022-12-07T05:41:36;101120.38;;;8.45;55.61
37064;BME280;23211;53.912;9.138;2022-12-07T05:44:45;101116.53;;;8.40;55.44
37064;BME280;23211;53.912;9.138;2022-12-07T05:47:31;101114.31;;;8.37;55.79
37064;BME280;23211;53.912;9.138;2022-12-07T05:50:17;101114.31;;;8.37;55.43
37064;BME280;23211;53.912;9.138;2022-12-07T05:53:03;101107.94;;;8.38;55.70
37064;BME280;23211;53.912;9.138;2022-12-07T05:55:49;101112.22;;;8.39;55.76
37064;BME280;23211;53.912;9.138;2022-12-07T05:58:35;101110.97;;;8.42;55.74
37064;BME280;23211;53.912;9.138;2022-12-07T06:01:39;101103.75;;;8.43;56.13
37064;BME280;23211;53.912;9.138;2022-12-07T06:04:29;101112.34;;;8.45;55.93
37064;BME280;23211;53.912;9.138;2022-12-07T06:07:16;101104.94;;;8.47;55.71
37064;BME280;23211;53.912;9.138;2022-12-07T06:10:02;101107.59;;;8.47;55.90
37064;BME280;23211;53.912;9.138;2022-12-07T06:12:48;101100.16;;;8.49;55.75
37064;BME280;23211;53.912;9.138;2022-12-07T06:15:37;101100.16;;;8.49;55.56
37064;BME280;23211;53.912;9.138;2022-12-07T06:18:22;101110.84;;;8.49;55.80
37064;BME280;23211;53.912;9.138;2022-12-07T06:21:08;101112.47;;;8.50;55.55
37064;BME280;23211;53.912;9.138;2022-12-07T06:23:54;101108.75;;;8.51;55.58
37064;BME280;23211;53.912;9.138;2022-12-07T06:26:41;101113.28;;;8.50;55.62
37064;BME280;23211;53.912;9.138;2022-12-07T06:29:27;101114.34;;;8.49;55.79
37064;BME280;23211;53.912;9.138;2022-12-07T06:32:13;101110.03;;;8.48;55.43
37064;BME280;23211;53.912;9.138;2022-12-07T06:34:59;101115.59;;;8.47;55.70
37064;BME280;23211;53.912;9.138;2022-12-07T06:37:45;101118.28;;;8.47;55.68
37064;BME280;23211;53.912;9.138;2022-12-07T06:40:31;101115.03;;;8.45;56.05
37064;BME280;23211;53.912;9.138;2022-12-07T06:43:17;101112.34;;;8.45;55.93
37064;BME280;23211;53.912;9.138;2022-12-07T06:46:03;101120.38;;;8.45;56.01
37064;BME280;23211;53.912;9.138;2022-12-07T06:48:48;101121.19;;;8.45;56.03
37064;BME280;23211;53.912;9.138;2022-12-07T06:51:35;101122.00;;;8.46;56.12
37064;BME280;23211;53.912;9.138;2022-12-07T06:54:21;101113.97;;;8.46;56.17
37064;BME280;23211;53.912;9.138;2022-12-07T06:57:07;101112.94;;;8.47;56.37
37064;BME280;23211;53.912;9.138;2022-12-07T06:59:53;101116.19;;;8.49;56.15
37064;BME280;23211;53.912;9.138;2022-12-07T07:02:39;101115.97;;;8.50;56.40
37064;BME280;23211;53.912;9.138;2022-12-07T07:05:25;101117.34;;;8.53;56.45
37064;BME280;23211;53.912;9.138;2022-12-07T07:08:12;101122.47;;;8.54;56.56
37064;BME280;23211;53.912;9.138;2022-12-07T07:10:58;101118.53;;;8.57;56.24
37064;BME280;23211;53.912;9.138;2022-12-07T07:13:44;101111.69;;;8.61;56.20
37064;BME280;23211;53.912;9.138;2022-12-07T07:16:30;101112.25;;;8.63;56.39
37064;BME280;23211;53.912;9.138;2022-12-07T07:19:16;101112.84;;;8.65;56.43
37064;BME280;23211;53.912;9.138;2022-12-07T07:22:02;101108.88;;;8.67;56.18
37064;BME280;23211;53.912;9.138;2022-12-07T07:24:48;101120.16;;;8.69;56.20
37064;BME280;23211;53.912;9.138;2022-12-07T07:27:34;101124.81;;;8.74;56.31
37064;BME280;23211;53.912;9.138;2022-12-07T07:30:20;101116.56;;;8.76;56.64
37064;BME280;23211;53.912;9.138;2022-12-07T07:33:06;101118.75;;;8.79;56.39
37064;BME280;23211;53.912;9.138;2022-12-07T07:35:52;101127.13;;;8.82;56.20
37064;BME280;23211;53.912;9.138;2022-12-07T07:38:38;101130.16;;;8.86;56.20
37064;BME280;23211;53.912;9.138;2022-12-07T07:41:24;101132.34;;;8.89;56.34
37064;BME280;23211;53.912;9.138;2022-12-07T07:44:10;101131.88;;;8.92;56.35
37064;BME280;23211;53.912;9.138;2022-12-07T07:46:56;101129.56;;;8.95;56.85
37064;BME280;23211;53.912;9.138;2022-12-07T07:49:42;101133.41;;;8.99;56.95
37064;BME280;23211;53.912;9.138;2022-12-07T07:52:28;101143.38;;;9.04;56.62
37064;BME280;23211;53.912;9.138;2022-12-07T07:55:14;101146.97;;;9.10;56.60
37064;BME280;23211;53.912;9.138;2022-12-07T07:58:00;101138.50;;;9.13;56.21
37064;BME280;23211;53.912;9.138;2022-12-07T08:00:46;101140.47;;;9.17;56.66
37064;BME280;23211;53.912;9.138;2022-12-07T08:03:32;101140.00;;;9.20;56.29
37064;BME280;23211;53.912;9.138;2022-12-07T08:06:18;101139.75;;;9.22;56.34
37064;BME280;23211;53.912;9.138;2022-12-07T08:09:04;101135.00;;;9.24;56.12
37064;BME280;23211;53.912;9.138;2022-12-07T08:11:51;101133.72;;;9.26;56.34
37064;BME280;23211;53.912;9.138;2022-12-07T08:14:37;101128.13;;;9.28;56.28
37064;BME280;23211;53.912;9.138;2022-12-07T08:17:23;101134.28;;;9.28;56.11
37064;BME280;23211;53.912;9.138;2022-12-07T08:20:08;101130.00;;;9.27;55.76
37064;BME280;23211;53.912;9.138;2022-12-07T08:22:54;101134.28;;;9.28;55.75
37064;BME280;23211;53.912;9.138;2022-12-07T08:25:40;101131.38;;;9.30;55.97
37064;BME280;23211;53.912;9.138;2022-12-07T08:28:27;101133.25;;;9.29;56.26
37064;BME280;23211;53.912;9.138;2022-12-07T08:31:16;101136.72;;;9.30;55.78
37064;BME280;23211;53.912;9.138;2022-12-07T08:34:02;101130.56;;;9.29;56.12
37064;BME280;23211;53.912;9.138;2022-12-07T08:36:48;101134.63;;;9.32;56.42
37064;BME280;23211;53.912;9.138;2022-12-07T08:39:34;101121.59;;;9.35;55.67
37064;BME280;23211;53.912;9.138;2022-12-07T08:42:19;101131.03;;;9.38;55.59
37064;BME280;23211;53.912;9.138;2022-12-07T08:45:11;101130.53;;;9.41;55.94
37064;BME280;23211;53.912;9.138;2022-12-07T08:48:06;101129.25;;;9.44;55.72
37064;BME280;23211;53.912;9.138;2022-12-07T08:50:53;101137.84;;;9.46;55.71
37064;BME280;23211;53.912;9.138;2022-12-07T08:53:40;101135.19;;;9.46;55.54
37064;BME280;23211;53.912;9.138;2022-12-07T08:56:27;101145.66;;;9.47;55.70
37064;BME280;23211;53.912;9.138;2022-12-07T08:59:14;101140.31;;;9.47;55.95
37064;BME280;23211;53.912;9.138;2022-12-07T09:02:01;101145.16;;;9.50;56.08
37064;BME280;23211;53.912;9.138;2022-12-07T09:04:47;101158.53;;;9.50;56.11
37064;BME280;23211;53.912;9.138;2022-12-07T09:07:33;101150.88;;;9.54;56.54
37064;BME280;23211;53.912;9.138;2022-12-07T09:10:20;101164.56;;;9.57;55.89
37064;BME280;23211;53.912;9.138;2022-12-07T09:13:05;101182.00;;;9.60;55.93
37064;BME280;23211;53.912;9.138;2022-12-07T09:15:51;101167.34;;;9.62;56.21
37064;BME280;23211;53.912;9.138;2022-12-07T09:18:37;101164.09;;;9.60;56.51
37064;BME280;23211;53.912;9.138;2022-12-07T09:21:23;101164.34;;;9.59;56.29
37064;BME280;23211;53.912;9.138;2022-12-07T09:24:09;101146.91;;;9.56;56.51
37064;BME280;23211;53.912;9.138;2022-12-07T09:26:57;101160.28;;;9.56;56.46
37064;BME280;23211;53.912;9.138;2022-12-07T09:29:43;101152.00;;;9.58;56.55
37064;BME280;23211;53.912;9.138;2022-12-07T09:32:29;101157.94;;;9.60;56.29
37064;BME280;23211;53.912;9.138;2022-12-07T09:35:14;101148.06;;;9.60;56.51
37064;BME280;23211;53.912;9.138;2022-12-07T09:38:00;101147.56;;;9.63;56.30
37064;BME280;23211;53.912;9.138;2022-12-07T09:40:47;101142.81;;;9.65;56.09
37064;BME280;23211;53.912;9.138;2022-12-07T09:43:35;101139.88;;;9.67;56.01
37064;BME280;23211;53.912;9.138;2022-12-07T09:46:21;101145.59;;;9.70;55.93
37064;BME280;23211;53.912;9.138;2022-12-07T09:49:16;101144.53;;;9.72;55.47
37064;BME280;23211;53.912;9.138;2022-12-07T09:54:54;101142.75;;;9.77;55.83
37064;BME280;23211;53.912;9.138;2022-12-07T09:57:40;101146.81;;;9.80;55.76
37064;BME280;23211;53.912;9.138;2022-12-07T10:00:27;101145.88;;;9.86;55.80
37064;BME280;23211;53.912;9.138;2022-12-07T10:03:13;101142.97;;;9.87;55.73
37064;BME280;23211;53.912;9.138;2022-12-07T10:05:59;101144.34;;;9.90;55.74
37064;BME280;23211;53.912;9.138;2022-12-07T10:08:46;101150.03;;;9.93;55.98
37064;BME280;23211;53.912;9.138;2022-12-07T10:11:32;101145.00;;;9.97;55.70
37064;BME280;23211;53.912;9.138;2022-12-07T10:14:17;101144.53;;;10.00;55.14
37064;BME280;23211;53.912;9.138;2022-12-07T10:20:22;101135.78;;;10.05;55.78
37064;BME280;23211;53.912;9.138;2022-12-07T10:23:15;101140.91;;;10.06;55.61
37064;BME280;23211;53.912;9.138;2022-12-07T10:26:20;101141.47;;;10.08;55.47
37064;BME280;23211;53.912;9.138;2022-12-07T10:29:30;101136.22;;;10.13;55.18
37064;BME280;23211;53.912;9.138;2022-12-07T10:35:34;101141.44;;;10.20;55.67
37064;BME280;23211;53.912;9.138;2022-12-07T10:38:28;101132.19;;;10.27;55.75
37064;BME280;23211;53.912;9.138;2022-12-07T10:41:17;101131.22;;;10.33;55.61
37064;BME280;23211;53.912;9.138;2022-12-07T10:44:04;101132.94;;;10.40;55.33
37064;BME280;23211;53.912;9.138;2022-12-07T10:53:24;101133.94;;;10.50;54.95
37064;BME280;23211;53.912;9.138;2022-12-07T11:02:25;101115.94;;;10.62;54.79
37064;BME280;23211;53.912;9.138;2022-12-07T11:11:38;101115.19;;;10.67;54.92
37064;BME280;23211;53.912;9.138;2022-12-07T11:14:36;101107.72;;;10.69;54.37
37064;BME280;23211;53.912;9.138;2022-12-07T11:17:43;101114.22;;;10.73;54.48
37064;BME280;23211;53.912;9.138;2022-12-07T11:30:19;101107.13;;;10.84;53.67
37064;BME280;23211;53.912;9.138;2022-12-07T11:36:36;101091.63;;;10.86;53.56
37064;BME280;23211;53.912;9.138;2022-12-07T11:39:50;101092.19;;;10.88;53.59
37064;BME280;23211;53.912;9.138;2022-12-07T11:42:41;101087.69;;;10.93;52.89
37064;BME280;23211;53.912;9.138;2022-12-07T11:45:33;101082.91;;;10.95;52.95
37064;BME280;23211;53.912;9.138;2022-12-07T11:48:30;101091.19;;;10.94;52.64
37064;BME280;23211;53.912;9.138;2022-12-07T11:51:20;101092.56;;;10.96;52.63
37064;BME280;23211;53.912;9.138;2022-12-07T11:54:36;101091.19;;;10.94;52.54
37064;BME280;23211;53.912;9.138;2022-12-07T11:57:36;101098.50;;;10.98;52.54
37064;BME280;23211;53.912;9.138;2022-12-07T12:00:24;101092.88;;;11.00;52.42
37064;BME280;23211;53.912;9.138;2022-12-07T12:03:13;101092.88;;;11.00;52.64
37064;BME280;23211;53.912;9.138;2022-12-07T12:06:01;101091.00;;;11.01;52.27
37064;BME280;23211;53.912;9.138;2022-12-07T12:08:54;101086.72;;;11.00;52.04
37064;BME280;23211;53.912;9.138;2022-12-07T12:11:56;101100.69;;;11.02;52.43
37064;BME280;23211;53.912;9.138;2022-12-07T12:18:53;101095.00;;;10.98;51.77
37064;BME280;23211;53.912;9.138;2022-12-07T12:21:29;101094.94;;;10.93;51.60
37064;BME280;23211;53.912;9.138;2022-12-07T12:24:19;101086.06;;;10.92;51.89
37064;BME280;23211;53.912;9.138;2022-12-07T12:27:15;101091.19;;;10.94;51.41
37064;BME280;23211;53.912;9.138;2022-12-07T12:30:06;101080.72;;;10.92;50.89
37064;BME280;23211;53.912;9.138;2022-12-07T12:33:02;101082.03;;;10.90;50.75
37064;BME280;23211;53.912;9.138;2022-12-07T12:39:15;101081.44;;;10.88;50.62
37064;BME280;23211;53.912;9.138;2022-12-07T12:42:01;101085.50;;;10.90;50.79
37064;BME280;23211;53.912;9.138;2022-12-07T12:45:26;101088.19;;;10.90;51.24
37064;BME280;23211;53.912;9.138;2022-12-07T12:48:44;101083.88;;;10.89;51.00
37064;BME280;23211;53.912;9.138;2022-12-07T12:51:38;101089.06;;;10.96;51.07
37064;BME280;23211;53.912;9.138;2022-12-07T12:54:30;101092.88;;;11.00;51.22
37064;BME280;23211;53.912;9.138;2022-12-07T12:57:25;101096.44;;;11.06;51.13
37064;BME280;23211;53.912;9.138;2022-12-07T13:00:19;101089.53;;;11.10;51.26
37064;BME280;23211;53.912;9.138;2022-12-07T13:03:16;101087.16;;;11.13;50.71
37064;BME280;23211;53.912;9.138;2022-12-07T13:09:28;101088.47;;;11.11;50.40
37064;BME280;23211;53.912;9.138;2022-12-07T13:12:16;101080.72;;;11.14;50.41
37064;BME280;23211;53.912;9.138;2022-12-07T13:15:40;101076.69;;;11.12;50.64
37064;BME280;23211;53.912;9.138;2022-12-07T13:24:07;101076.69;;;11.12;49.68
37064;BME280;23211;53.912;9.138;2022-12-07T13:26:55;101087.41;;;11.12;50.02
37064;BME280;23211;53.912;9.138;2022-12-07T13:29:42;101077.19;;;11.09;49.95
37064;BME280;23211;53.912;9.138;2022-12-07T13:32:29;101080.91;;;11.08;49.89
37064;BME280;23211;53.912;9.138;2022-12-07T13:35:35;101071.50;;;11.05;50.11
37064;BME280;23211;53.912;9.138;2022-12-07T13:38:29;101074.75;;;11.07;49.38
37064;BME280;23211;53.912;9.138;2022-12-07T13:41:18;101073.94;;;11.07;49.55
37064;BME280;23211;53.912;9.138;2022-12-07T13:44:15;101066.38;;;11.04;49.69
37064;BME280;23211;53.912;9.138;2022-12-07T13:47:30;101078.16;;;11.03;49.80
37064;BME280;23211;53.912;9.138;2022-12-07T13:50:29;101069.06;;;11.04;50.09
37064;BME280;23211;53.912;9.138;2022-12-07T13:53:16;101067.75;;;11.06;50.01
37064;BME280;23211;53.912;9.138;2022-12-07T13:56:02;101067.75;;;11.06;49.90
37064;BME280;23211;53.912;9.138;2022-12-07T13:58:48;101064.81;;;11.08;49.61
37064;BME280;23211;53.912;9.138;2022-12-07T14:01:34;101059.72;;;11.06;49.34
37064;BME280;23211;53.912;9.138;2022-12-07T14:07:27;101065.25;;;11.00;49.18
37064;BME280;23211;53.912;9.138;2022-12-07T14:10:28;101059.84;;;10.94;48.46
37064;BME280;23211;53.912;9.138;2022-12-07T14:16:33;101069.59;;;10.84;48.75
37064;BME280;23211;53.912;9.138;2022-12-07T14:22:30;101072.78;;;10.81;48.12
37064;BME280;23211;53.912;9.138;2022-12-07T14:25:25;101059.63;;;10.79;48.52
37064;BME280;23211;53.912;9.138;2022-12-07T14:28:31;101074.00;;;10.73;48.24
37064;BME280;23211;53.912;9.138;2022-12-07T14:31:21;101071.56;;;10.72;48.03
37064;BME280;23211;53.912;9.138;2022-12-07T14:34:12;101064.03;;;10.69;48.02
37064;BME280;23211;53.912;9.138;2022-12-07T14:36:58;101071.75;;;10.65;48.43
37064;BME280;23211;53.912;9.138;2022-12-07T14:39:44;101071.19;;;10.63;47.94
37064;BME280;23211;53.912;9.138;2022-12-07T14:42:30;101079.97;;;10.58;48.19
37064;BME280;23211;53.912;9.138;2022-12-07T14:45:19;101070.78;;;10.54;47.88
37064;BME280;23211;53.912;9.138;2022-12-07T14:48:07;101078.75;;;10.49;47.98
37064;BME280;23211;53.912;9.138;2022-12-07T14:50:56;101084.84;;;10.45;47.62
37064;BME280;23211;53.912;9.138;2022-12-07T14:53:50;101079.84;;;10.37;47.76
37064;BME280;23211;53.912;9.138;2022-12-07T14:56:37;101084.88;;;10.33;48.21
37064;BME280;23211;53.912;9.138;2022-12-07T14:59:23;101082.94;;;10.28;48.17
37064;BME280;23211;53.912;9.138;2022-12-07T15:02:11;101084.25;;;10.26;47.99
37064;BME280;23211;53.912;9.138;2022-12-07T15:04:57;101072.16;;;10.23;47.67
37064;BME280;23211;53.912;9.138;2022-12-07T15:07:44;101066.47;;;10.20;47.39
37064;BME280;23211;53.912;9.138;2022-12-07T15:10:32;101069.59;;;10.17;48.26
37064;BME280;23211;53.912;9.138;2022-12-07T15:16:13;101070.81;;;10.09;47.51
37064;BME280;23211;53.912;9.138;2022-12-07T15:19:02;101064.88;;;10.07;47.91
37064;BME280;23211;53.912;9.138;2022-12-07T15:21:48;101058.41;;;10.03;47.58
37064;BME280;23211;53.912;9.138;2022-12-07T15:24:34;101056.19;;;10.00;47.84
37064;BME280;23211;53.912;9.138;2022-12-07T15:27:20;101056.69;;;9.97;47.28
37064;BME280;23211;53.912;9.138;2022-12-07T15:30:06;101060.09;;;9.92;48.23
37064;BME280;23211;53.912;9.138;2022-12-07T15:32:53;101056.28;;;9.88;47.88
37064;BME280;23211;53.912;9.138;2022-12-07T15:35:40;101057.22;;;9.82;47.79
37064;BME280;23211;53.912;9.138;2022-12-07T15:38:26;101055.28;;;9.78;48.07
37064;BME280;23211;53.912;9.138;2022-12-07T15:41:14;101055.44;;;9.71;48.08
37064;BME280;23211;53.912;9.138;2022-12-07T15:44:00;101055.09;;;9.67;48.18
37064;BME280;23211;53.912;9.138;2022-12-07T15:47:04;101055.25;;;9.61;48.23
37064;BME280;23211;53.912;9.138;2022-12-07T15:49:50;101054.34;;;9.55;48.28
37064;BME280;23211;53.912;9.138;2022-12-07T15:52:37;101052.13;;;9.52;48.30
37064;BME280;23211;53.912;9.138;2022-12-07T15:55:23;101045.66;;;9.48;48.49
37064;BME280;23211;53.912;9.138;2022-12-07T15:58:08;101039.97;;;9.45;48.78
37064;BME280;23211;53.912;9.138;2022-12-07T16:00:54;101045.53;;;9.43;48.61
37064;BME280;23211;53.912;9.138;2022-12-07T16:03:40;101039.63;;;9.41;48.47
37064;BME280;23211;53.912;9.138;2022-12-07T16:06:27;101045.44;;;9.38;48.97
37064;BME280;23211;53.912;9.138;2022-12-07T16:09:13;101038.47;;;9.37;49.06
37064;BME280;23211;53.912;9.138;2022-12-07T16:11:58;101039.53;;;9.36;48.63
37064;BME280;23211;53.912;9.138;2022-12-07T16:14:44;101035.22;;;9.35;49.20
37064;BME280;23211;53.912;9.138;2022-12-07T16:17:31;101040.56;;;9.35;48.95
37064;BME280;23211;53.912;9.138;2022-12-07T16:20:17;101034.88;;;9.31;49.35
37064;BME280;23211;53.912;9.138;2022-12-07T16:23:03;101038.63;;;9.30;48.90
37064;BME280;23211;53.912;9.138;2022-12-07T16:25:49;101030.84;;;9.29;49.26